Terminal Aerodrome Forecast
Issued by NWS St Louis, MO

Home | Current Version | Previous Version | Text Only | Print | Product List | Glossary On
Versions: 1 2 3 4 5 6 7 8 9 10 11 12 13 14 15 16 17 18 19 20 21 22 23
000
FTUS43 KLSX 261120
TAFCOU
TAF
KCOU 261120Z 2612/2712 20006KT P6SM VCTS OVC060CB
     FM261300 16009KT P6SM BKN250
     FM261600 20006KT P6SM BKN200
     FM262000 23006KT P6SM VCTS BKN040CB
     FM270100 30005KT P6SM BKN250
     FM271000 VRB03KT 5SM BR BKN020=

USA.gov is the U.S. government's official web portal to all federal, state and local government web resources and services.